Time;durP1;ratioP1;P1;durP2;ratioP2;P2;SDS_P1;SDS_P2;PMS_P1;PMS_P2;Temp;Humidity;BMP_temperature;BMP_pressure;BME280_temperature;BME280_humidity;BME280_pressure;Samples;Min_cycle;Max_cycle;Signal;HPM_P1;HPM_P2
2023/07/17 00:01:40;;;;;;;5.05;2.30;;;21.00;99.90;;;;;;5032708;28;20187;-29
2023/07/17 00:04:06;;;;;;;2.90;2.50;;;20.90;99.90;;;;;;5053016;28;20193;-28
2023/07/17 00:06:31;;;;;;;3.97;2.40;;;20.80;99.90;;;;;;5037727;28;20204;-28
2023/07/17 00:08:57;;;;;;;2.92;2.35;;;20.70;99.90;;;;;;5065675;28;20213;-26
2023/07/17 00:11:23;;;;;;;3.78;2.35;;;20.60;99.90;;;;;;5054249;28;20620;-27
2023/07/17 00:13:49;;;;;;;3.65;2.35;;;20.60;99.90;;;;;;5043582;28;20178;-28
2023/07/17 00:16:15;;;;;;;3.85;2.35;;;20.70;99.90;;;;;;5052947;28;20244;-30
2023/07/17 00:18:40;;;;;;;3.63;2.90;;;20.60;99.90;;;;;;5035289;28;20198;-29
2023/07/17 00:21:06;;;;;;;4.07;2.50;;;20.70;99.90;;;;;;5055586;28;20182;-28
2023/07/17 00:23:32;;;;;;;4.38;2.30;;;20.60;99.90;;;;;;5041042;28;20187;-28
2023/07/17 00:25:58;;;;;;;3.85;2.40;;;20.60;99.90;;;;;;5054141;28;20191;-28
2023/07/17 00:28:24;;;;;;;4.38;2.40;;;20.60;99.90;;;;;;5053251;28;20200;-29
2023/07/17 00:30:50;;;;;;;3.90;2.60;;;20.60;99.90;;;;;;5043131;28;20205;-29
2023/07/17 00:33:16;;;;;;;3.03;2.40;;;20.60;99.90;;;;;;5051708;28;20182;-30
2023/07/17 00:35:42;;;;;;;4.53;2.47;;;20.60;99.90;;;;;;5035842;28;20189;-29
2023/07/17 00:38:08;;;;;;;3.95;2.60;;;20.60;99.90;;;;;;5046006;28;20197;-29
2023/07/17 00:40:38;;;;;;;2.45;2.25;;;20.50;99.90;;;;;;5062372;28;20188;-30
2023/07/17 00:43:10;;;;;;;4.45;3.00;;;20.40;99.90;;;;;;5057059;28;20196;-29
2023/07/17 00:45:39;;;;;;;4.22;2.50;;;20.50;99.90;;;;;;5035047;28;20223;-29
2023/07/17 00:48:05;;;;;;;4.03;2.50;;;20.50;99.90;;;;;;5051740;28;20205;-30
2023/07/17 00:50:31;;;;;;;3.15;2.40;;;20.50;99.90;;;;;;5051612;28;20201;-29
2023/07/17 00:52:57;;;;;;;3.83;2.45;;;20.50;99.90;;;;;;5044278;28;20192;-30
2023/07/17 00:55:23;;;;;;;4.55;2.42;;;20.50;99.90;;;;;;5047284;28;20212;-29
2023/07/17 00:57:51;;;;;;;4.88;2.72;;;20.50;99.90;;;;;;5044378;28;20690;-29
2023/07/17 01:00:19;;;;;;;4.22;2.75;;;20.50;99.90;;;;;;5043715;28;20247;-29
2023/07/17 01:02:45;;;;;;;4.38;2.67;;;20.50;99.90;;;;;;5041172;28;20189;-29
2023/07/17 01:05:11;;;;;;;3.63;2.38;;;20.60;99.90;;;;;;5051055;28;20228;-29
2023/07/17 01:07:39;;;;;;;4.65;2.70;;;20.50;99.90;;;;;;5050744;28;20194;-29
2023/07/17 01:10:06;;;;;;;4.63;2.83;;;20.50;99.90;;;;;;5059005;28;20208;-28
2023/07/17 01:12:34;;;;;;;3.75;2.78;;;20.50;99.90;;;;;;5033892;28;20216;-29
2023/07/17 01:15:01;;;;;;;4.50;2.75;;;20.50;99.90;;;;;;5033995;28;20221;-29
2023/07/17 01:17:27;;;;;;;3.05;2.50;;;20.50;99.90;;;;;;5026824;28;20240;-29
2023/07/17 01:19:53;;;;;;;4.25;2.78;;;20.50;99.90;;;;;;5031369;28;20236;-30
2023/07/17 01:22:26;;;;;;;4.15;2.83;;;20.40;99.90;;;;;;5048085;28;20178;-28
2023/07/17 01:24:52;;;;;;;4.55;2.80;;;20.30;99.90;;;;;;5084305;28;20186;-28
2023/07/17 01:27:18;;;;;;;5.50;2.60;;;20.30;99.90;;;;;;5054808;28;20284;-28
2023/07/17 01:29:44;;;;;;;3.80;2.90;;;20.30;99.90;;;;;;5071255;28;20209;-29
2023/07/17 01:32:10;;;;;;;4.68;2.80;;;20.30;99.90;;;;;;5038174;28;20185;-29
2023/07/17 01:34:37;;;;;;;3.70;2.97;;;20.30;99.90;;;;;;5051093;28;20186;-28
2023/07/17 01:37:02;;;;;;;3.65;2.70;;;20.30;99.90;;;;;;5051979;28;20199;-30
2023/07/17 01:39:30;;;;;;;4.80;2.83;;;20.30;99.90;;;;;;5054840;28;20233;-29
2023/07/17 01:41:56;;;;;;;4.15;2.40;;;20.30;99.90;;;;;;5036608;28;20188;-30
2023/07/17 01:44:27;;;;;;;4.40;2.65;;;20.30;99.90;;;;;;5034854;28;20189;-29
2023/07/17 01:46:54;;;;;;;4.72;2.88;;;20.40;99.90;;;;;;5037051;28;20194;-28
2023/07/17 01:49:20;;;;;;;6.72;2.80;;;20.40;99.90;;;;;;5050864;28;20225;-29
2023/07/17 01:51:46;;;;;;;9.20;3.20;;;20.40;99.90;;;;;;5034109;28;20174;-29
2023/07/17 01:54:12;;;;;;;5.43;2.70;;;20.40;99.90;;;;;;5056780;28;20173;-29
2023/07/17 01:56:38;;;;;;;5.53;2.50;;;20.40;99.90;;;;;;5038640;28;20184;-29
2023/07/17 01:59:04;;;;;;;4.97;2.65;;;20.40;99.90;;;;;;5049462;28;20210;-29
2023/07/17 02:01:32;;;;;;;4.00;2.70;;;20.40;99.90;;;;;;5032226;28;20174;-29
2023/07/17 02:03:58;;;;;;;4.45;2.85;;;20.30;99.90;;;;;;5033944;28;20182;-29
2023/07/17 02:06:26;;;;;;;3.72;2.38;;;20.30;99.90;;;;;;5059657;28;20202;-30
2023/07/17 02:08:53;;;;;;;3.63;2.60;;;20.30;99.90;;;;;;5042134;28;20205;-30
2023/07/17 02:11:22;;;;;;;4.45;2.58;;;20.30;99.90;;;;;;5035098;28;20174;-31
2023/07/17 02:13:48;;;;;;;5.30;2.90;;;20.30;99.90;;;;;;5050212;28;20265;-29
2023/07/17 02:16:14;;;;;;;4.78;2.70;;;20.30;99.90;;;;;;5032954;28;20289;-29
2023/07/17 02:18:41;;;;;;;4.03;2.80;;;20.30;99.90;;;;;;5055788;28;20204;-29
2023/07/17 02:21:06;;;;;;;4.50;2.72;;;20.30;99.90;;;;;;5051328;28;20236;-29
2023/07/17 02:23:32;;;;;;;2.88;2.60;;;20.20;99.90;;;;;;5033527;28;20178;-29
2023/07/17 02:25:59;;;;;;;5.78;2.72;;;20.20;99.90;;;;;;5029898;28;20185;-29
2023/07/17 02:28:25;;;;;;;3.63;2.85;;;20.10;99.90;;;;;;5032517;28;20202;-30
2023/07/17 02:30:51;;;;;;;4.70;2.88;;;20.00;99.90;;;;;;5033344;28;20237;-29
2023/07/17 02:33:17;;;;;;;4.78;3.00;;;20.00;99.90;;;;;;5049014;28;20205;-29
2023/07/17 02:35:44;;;;;;;3.13;2.80;;;20.00;99.90;;;;;;5032274;28;20257;-30
2023/07/17 02:38:10;;;;;;;3.83;2.90;;;19.90;99.90;;;;;;5048414;28;20269;-30
2023/07/17 02:40:35;;;;;;;3.50;2.60;;;19.90;99.90;;;;;;5044268;28;20178;-30
2023/07/17 02:43:01;;;;;;;5.30;2.97;;;19.90;99.90;;;;;;5051685;28;20237;-30
2023/07/17 02:45:27;;;;;;;5.88;3.00;;;19.90;99.90;;;;;;5030431;28;20194;-30
2023/07/17 02:47:53;;;;;;;3.58;2.88;;;19.90;99.90;;;;;;5051313;28;20202;-30
2023/07/17 02:50:19;;;;;;;3.67;2.65;;;20.00;99.90;;;;;;5040951;28;20210;-30
2023/07/17 02:52:45;;;;;;;5.50;2.97;;;20.00;99.90;;;;;;5049704;28;20174;-30
2023/07/17 02:55:11;;;;;;;5.07;2.50;;;19.90;99.90;;;;;;5057930;28;20182;-30
2023/07/17 02:57:37;;;;;;;4.97;2.83;;;19.90;99.90;;;;;;5049101;28;20182;-28
2023/07/17 03:00:08;;;;;;;3.22;2.80;;;19.80;99.90;;;;;;5049539;28;20213;-28
2023/07/17 03:02:41;;;;;;;5.35;2.92;;;19.80;99.90;;;;;;5033718;28;20186;-29
2023/07/17 03:05:11;;;;;;;4.22;2.70;;;19.80;99.90;;;;;;5050269;28;20185;-28
2023/07/17 03:07:39;;;;;;;4.25;3.17;;;19.80;99.90;;;;;;5035237;28;20193;-28
2023/07/17 03:10:05;;;;;;;3.50;2.70;;;19.80;99.90;;;;;;5041047;28;20220;-28
2023/07/17 03:12:31;;;;;;;4.00;2.83;;;19.80;99.90;;;;;;5069392;28;20176;-29
2023/07/17 03:14:58;;;;;;;4.38;2.90;;;19.80;99.90;;;;;;5052770;28;20194;-32
2023/07/17 03:17:23;;;;;;;3.25;2.78;;;19.80;99.90;;;;;;5031455;28;20182;-30
2023/07/17 03:19:51;;;;;;;3.00;2.65;;;19.70;99.90;;;;;;5032729;28;20263;-29
2023/07/17 03:22:18;;;;;;;4.30;2.90;;;19.70;99.90;;;;;;5031542;28;20200;-29
2023/07/17 03:24:44;;;;;;;5.15;2.88;;;19.60;99.90;;;;;;5038504;28;20197;-29
2023/07/17 03:27:10;;;;;;;5.78;2.90;;;19.70;99.90;;;;;;5049200;28;20181;-29
2023/07/17 03:29:36;;;;;;;4.82;3.10;;;19.70;99.90;;;;;;5037233;28;20238;-29
2023/07/17 03:32:02;;;;;;;6.10;2.92;;;19.60;99.90;;;;;;5037696;28;20220;-29
2023/07/17 03:34:28;;;;;;;4.78;3.10;;;19.50;99.90;;;;;;5062587;28;20186;-30
2023/07/17 03:36:54;;;;;;;5.07;2.88;;;19.50;99.90;;;;;;5039863;28;20184;-30
2023/07/17 03:39:20;;;;;;;5.53;2.90;;;19.40;99.90;;;;;;5041913;28;20255;-29
2023/07/17 03:41:46;;;;;;;3.78;2.97;;;19.40;99.90;;;;;;5032627;28;20265;-29
2023/07/17 03:44:12;;;;;;;5.50;2.80;;;19.40;99.90;;;;;;5048860;28;20177;-28
2023/07/17 03:46:39;;;;;;;4.88;3.20;;;19.30;99.90;;;;;;5047418;28;20182;-29
2023/07/17 03:49:05;;;;;;;3.55;2.83;;;19.20;99.90;;;;;;5033864;28;20213;-29
2023/07/17 03:51:31;;;;;;;5.05;2.92;;;19.20;99.90;;;;;;5043855;28;20264;-31
2023/07/17 03:53:57;;;;;;;4.47;3.20;;;19.10;99.90;;;;;;5038461;28;20274;-29
2023/07/17 03:56:23;;;;;;;4.30;2.63;;;19.10;99.90;;;;;;5032564;28;20182;-30
2023/07/17 03:58:49;;;;;;;4.47;2.95;;;19.00;99.90;;;;;;5063625;28;20197;-29
2023/07/17 04:01:15;;;;;;;5.10;3.08;;;19.00;99.90;;;;;;5043577;28;20249;-31
2023/07/17 04:03:45;;;;;;;4.80;2.80;;;19.00;99.90;;;;;;5056006;28;20173;-28
2023/07/17 04:06:11;;;;;;;3.70;2.78;;;19.00;99.90;;;;;;5043930;28;20272;-29
2023/07/17 04:08:38;;;;;;;3.63;3.05;;;18.90;99.90;;;;;;5029802;28;20190;-29
2023/07/17 04:11:04;;;;;;;4.03;3.13;;;18.90;99.90;;;;;;5048583;28;20213;-30
2023/07/17 04:13:30;;;;;;;4.47;3.13;;;18.90;99.90;;;;;;5050515;28;20182;-30
2023/07/17 04:16:00;;;;;;;6.22;3.30;;;18.90;99.90;;;;;;5032949;28;20186;-28
2023/07/17 04:18:26;;;;;;;5.28;3.15;;;18.90;99.90;;;;;;5052789;28;20827;-28
2023/07/17 04:20:52;;;;;;;5.43;2.85;;;18.90;99.90;;;;;;5060266;28;20215;-28
2023/07/17 04:23:18;;;;;;;5.30;3.17;;;18.90;99.90;;;;;;5058309;28;20225;-28
2023/07/17 04:25:50;;;;;;;3.97;3.05;;;19.00;99.90;;;;;;5040255;28;20247;-30
2023/07/17 04:28:18;;;;;;;6.40;3.55;;;19.00;99.90;;;;;;5051900;28;20209;-29
2023/07/17 04:30:44;;;;;;;4.47;3.00;;;19.10;99.90;;;;;;5052331;28;20198;-28
2023/07/17 04:33:12;;;;;;;4.05;3.00;;;19.10;99.90;;;;;;5035332;28;20185;-30
2023/07/17 04:35:39;;;;;;;7.65;3.08;;;19.20;99.90;;;;;;5052121;28;20178;-30
2023/07/17 04:38:06;;;;;;;5.13;3.22;;;19.20;99.90;;;;;;5035012;28;20209;-30
2023/07/17 04:40:33;;;;;;;6.90;2.75;;;19.20;99.90;;;;;;5044208;28;20272;-29
2023/07/17 04:43:02;;;;;;;5.03;3.20;;;19.30;99.90;;;;;;5042601;28;20185;-29
2023/07/17 04:45:29;;;;;;;6.40;3.03;;;19.40;99.90;;;;;;5046011;28;20188;-31
2023/07/17 04:47:57;;;;;;;3.97;2.90;;;19.40;99.90;;;;;;5051411;28;20202;-29
2023/07/17 04:50:27;;;;;;;6.88;2.72;;;19.50;99.90;;;;;;5042025;28;20206;-30
2023/07/17 04:52:53;;;;;;;4.05;2.90;;;19.50;99.90;;;;;;5060100;28;20181;-29
2023/07/17 04:55:21;;;;;;;4.50;3.00;;;19.60;99.90;;;;;;5033508;28;20189;-31
2023/07/17 04:57:48;;;;;;;5.03;2.95;;;19.60;99.90;;;;;;5031477;28;20182;-30
2023/07/17 05:00:14;;;;;;;5.60;2.88;;;19.70;99.90;;;;;;5052483;28;20186;-30
2023/07/17 05:02:40;;;;;;;3.92;2.80;;;19.70;99.90;;;;;;5042209;28;20193;-31
2023/07/17 05:05:07;;;;;;;5.60;3.00;;;19.70;99.90;;;;;;5034368;28;20193;-29
2023/07/17 05:07:33;;;;;;;4.78;3.25;;;19.70;99.90;;;;;;5053549;28;20232;-29
2023/07/17 05:09:59;;;;;;;5.00;3.00;;;19.70;99.90;;;;;;5050652;28;20197;-31
2023/07/17 05:12:25;;;;;;;5.55;2.92;;;19.70;99.90;;;;;;5051689;28;20174;-30
2023/07/17 05:14:53;;;;;;;4.75;3.15;;;19.70;99.90;;;;;;5039691;28;20194;-31
2023/07/17 05:17:20;;;;;;;3.38;2.53;;;19.80;99.90;;;;;;5036452;28;20232;-29
2023/07/17 05:19:46;;;;;;;5.40;2.97;;;19.80;99.90;;;;;;5044920;28;20213;-29
2023/07/17 05:22:12;;;;;;;6.03;3.13;;;20.00;99.90;;;;;;5036717;28;20186;-30
2023/07/17 05:24:39;;;;;;;7.30;3.28;;;20.00;99.90;;;;;;5061134;28;20178;-31
2023/07/17 05:27:05;;;;;;;3.85;3.05;;;20.10;99.90;;;;;;5038662;28;20193;-29
2023/07/17 05:29:33;;;;;;;3.75;3.08;;;20.10;99.90;;;;;;5054615;28;20213;-29
2023/07/17 05:31:59;;;;;;;5.20;3.10;;;20.10;99.90;;;;;;5057320;28;20201;-29
2023/07/17 05:34:25;;;;;;;4.75;3.20;;;20.10;99.90;;;;;;5053071;28;20182;-30
2023/07/17 05:36:52;;;;;;;5.68;3.10;;;20.20;99.90;;;;;;5063324;28;20284;-30
2023/07/17 05:39:18;;;;;;;6.38;3.20;;;20.30;99.90;;;;;;5061545;28;20327;-31
2023/07/17 05:41:43;;;;;;;3.95;3.10;;;20.40;99.90;;;;;;5059994;28;20186;-31
2023/07/17 05:44:09;;;;;;;4.97;3.08;;;20.50;99.90;;;;;;5054372;28;20190;-29
2023/07/17 05:46:35;;;;;;;3.85;3.10;;;20.60;99.90;;;;;;5042827;28;20264;-30
2023/07/17 05:49:01;;;;;;;5.03;3.05;;;20.60;99.90;;;;;;5057259;28;20223;-30
2023/07/17 05:51:27;;;;;;;6.35;3.42;;;20.60;99.90;;;;;;5035700;28;20182;-30
2023/07/17 05:53:53;;;;;;;4.50;3.35;;;20.60;99.90;;;;;;5057670;28;20178;-30
2023/07/17 05:56:20;;;;;;;6.40;3.67;;;20.60;99.90;;;;;;5059305;28;20208;-31
2023/07/17 05:58:47;;;;;;;6.68;3.00;;;20.60;99.90;;;;;;5042762;28;20198;-29
2023/07/17 06:01:13;;;;;;;4.65;3.10;;;20.60;99.90;;;;;;5035570;28;20182;-32
2023/07/17 06:03:40;;;;;;;3.58;2.90;;;20.60;99.90;;;;;;5058119;28;20182;-31
2023/07/17 06:06:06;;;;;;;5.97;3.05;;;20.60;99.90;;;;;;5049005;28;20186;-31
2023/07/17 06:08:31;;;;;;;5.85;3.10;;;20.60;99.90;;;;;;5036036;28;20205;-31
2023/07/17 06:10:57;;;;;;;6.57;3.50;;;20.60;99.90;;;;;;5050566;28;20205;-29
2023/07/17 06:13:23;;;;;;;5.68;2.88;;;20.80;99.90;;;;;;5050186;28;20250;-29
2023/07/17 06:15:49;;;;;;;7.72;3.53;;;20.90;99.90;;;;;;5034628;28;20219;-30
2023/07/17 06:18:15;;;;;;;6.55;3.30;;;21.10;99.90;;;;;;5049895;28;20229;-32
2023/07/17 06:20:41;;;;;;;4.22;3.15;;;21.30;99.90;;;;;;5050050;28;20186;-31
2023/07/17 06:23:06;;;;;;;3.67;3.10;;;21.50;99.90;;;;;;5057360;28;20185;-30
2023/07/17 06:25:34;;;;;;;4.70;3.17;;;21.60;99.90;;;;;;5051177;28;20228;-33
2023/07/17 06:28:00;;;;;;;6.40;2.83;;;21.60;99.90;;;;;;5033039;28;20198;-29
2023/07/17 06:30:25;;;;;;;4.90;2.90;;;21.70;99.90;;;;;;5034765;28;20202;-30
2023/07/17 06:32:51;;;;;;;5.28;2.70;;;21.90;99.90;;;;;;5039079;28;20181;-31
2023/07/17 06:35:17;;;;;;;7.60;3.10;;;22.00;99.90;;;;;;5049802;28;20201;-32
2023/07/17 06:37:43;;;;;;;5.70;3.22;;;22.10;99.90;;;;;;5049773;28;20178;-30
2023/07/17 06:40:10;;;;;;;8.43;3.00;;;22.20;99.90;;;;;;5065132;28;20184;-29
2023/07/17 06:42:37;;;;;;;6.25;3.13;;;22.20;99.90;;;;;;5058813;28;20188;-30
2023/07/17 06:45:03;;;;;;;8.02;3.15;;;22.30;99.90;;;;;;5034014;28;20192;-30
2023/07/17 06:47:29;;;;;;;7.43;3.42;;;22.40;99.90;;;;;;5048939;28;20208;-30
2023/07/17 06:49:54;;;;;;;6.10;3.05;;;22.50;99.90;;;;;;5049154;28;20206;-30
2023/07/17 06:52:21;;;;;;;6.90;3.00;;;22.60;99.90;;;;;;5066092;28;20174;-31
2023/07/17 06:54:47;;;;;;;5.53;2.80;;;22.70;99.90;;;;;;5055331;28;20325;-30
2023/07/17 06:57:13;;;;;;;5.88;3.28;;;22.80;99.90;;;;;;5032752;28;20178;-32
2023/07/17 06:59:39;;;;;;;4.85;3.25;;;22.80;99.90;;;;;;5049873;28;20260;-29
2023/07/17 07:02:05;;;;;;;5.40;3.40;;;22.90;99.90;;;;;;5048206;28;20272;-30
2023/07/17 07:04:31;;;;;;;7.82;3.72;;;22.90;99.90;;;;;;5052759;28;20190;-30
2023/07/17 07:06:57;;;;;;;6.28;3.30;;;22.90;99.90;;;;;;5049412;28;20182;-31
2023/07/17 07:09:24;;;;;;;7.57;4.15;;;23.00;99.90;;;;;;5049089;28;20240;-29
2023/07/17 07:11:50;;;;;;;5.93;3.60;;;23.10;99.90;;;;;;5036979;28;20188;-30
2023/07/17 07:14:16;;;;;;;6.43;3.60;;;23.20;99.90;;;;;;5039014;28;20190;-29
2023/07/17 07:16:42;;;;;;;6.75;3.70;;;23.10;99.90;;;;;;5049990;28;20170;-30
2023/07/17 07:19:08;;;;;;;7.53;3.90;;;23.20;99.90;;;;;;5048882;28;20292;-31
2023/07/17 07:21:34;;;;;;;6.20;3.88;;;23.30;99.90;;;;;;5032009;28;20269;-29
2023/07/17 07:24:02;;;;;;;6.07;4.05;;;23.40;99.90;;;;;;5049439;28;20193;-30
2023/07/17 07:26:31;;;;;;;7.03;4.15;;;23.50;99.90;;;;;;5033477;28;20189;-30
2023/07/17 07:28:57;;;;;;;7.57;3.90;;;23.50;99.90;;;;;;5034833;28;20217;-30
2023/07/17 07:31:24;;;;;;;6.65;3.90;;;23.60;99.90;;;;;;5033322;28;20243;-30
2023/07/17 07:33:49;;;;;;;5.78;4.13;;;23.60;99.90;;;;;;5032848;28;20178;-30
2023/07/17 07:36:15;;;;;;;6.28;4.28;;;23.70;99.90;;;;;;5048869;28;20277;-33
2023/07/17 07:38:41;;;;;;;6.63;4.00;;;23.80;99.90;;;;;;5050346;28;21673;-29
2023/07/17 07:41:07;;;;;;;6.90;4.50;;;23.90;99.90;;;;;;5048686;28;20189;-30
2023/07/17 07:43:32;;;;;;;7.45;4.20;;;24.10;99.90;;;;;;5048660;28;20189;-30
2023/07/17 07:45:58;;;;;;;6.10;4.13;;;24.10;99.90;;;;;;5033364;28;20182;-30
2023/07/17 07:48:24;;;;;;;5.00;3.63;;;24.10;99.90;;;;;;5031070;28;20205;-29
2023/07/17 07:50:50;;;;;;;6.10;4.00;;;24.10;99.90;;;;;;5048745;28;20283;-29
2023/07/17 07:53:18;;;;;;;5.65;4.22;;;24.10;99.90;;;;;;5062564;28;20178;-31
2023/07/17 07:55:47;;;;;;;6.57;4.40;;;24.20;99.90;;;;;;5041128;28;20226;-29
2023/07/17 07:58:18;;;;;;;6.95;4.20;;;24.40;99.90;;;;;;5053950;28;20208;-28
2023/07/17 08:00:45;;;;;;;7.47;4.10;;;24.50;99.90;;;;;;5068989;28;20280;-30
2023/07/17 08:03:15;;;;;;;6.32;4.28;;;24.60;99.90;;;;;;5052258;28;20192;-29
2023/07/17 08:05:42;;;;;;;8.30;4.47;;;24.60;99.90;;;;;;5062673;28;20207;-30
2023/07/17 08:08:08;;;;;;;5.00;4.35;;;24.50;99.90;;;;;;5055287;28;20240;-29
2023/07/17 08:10:37;;;;;;;7.25;4.00;;;24.70;99.90;;;;;;5055530;28;20296;-29
2023/07/17 08:13:06;;;;;;;5.88;3.80;;;24.90;99.90;;;;;;5058579;28;20182;-30
2023/07/17 08:15:32;;;;;;;5.70;4.00;;;25.00;99.90;;;;;;5053441;28;20217;-30
2023/07/17 08:17:59;;;;;;;7.35;4.30;;;25.10;99.90;;;;;;5048858;28;20229;-30
2023/07/17 08:20:25;;;;;;;5.93;4.20;;;25.20;99.90;;;;;;5052161;28;20232;-31
2023/07/17 08:22:55;;;;;;;7.53;4.55;;;25.40;99.90;;;;;;5032659;28;20175;-29
2023/07/17 08:25:22;;;;;;;5.75;4.40;;;25.40;99.90;;;;;;5035407;28;20253;-30
2023/07/17 08:27:49;;;;;;;5.55;4.43;;;25.40;99.90;;;;;;5052437;28;20178;-30
2023/07/17 08:30:15;;;;;;;8.18;4.13;;;25.50;99.90;;;;;;5052497;28;20205;-30
2023/07/17 08:32:41;;;;;;;5.45;4.00;;;25.50;99.90;;;;;;5051336;28;20224;-30
2023/07/17 08:35:07;;;;;;;6.13;4.10;;;25.50;99.90;;;;;;5045936;28;20185;-31
2023/07/17 08:37:34;;;;;;;5.75;4.22;;;25.50;99.90;;;;;;5055128;28;20178;-30
2023/07/17 08:40:00;;;;;;;4.35;3.63;;;25.60;99.90;;;;;;5057251;28;20189;-30
2023/07/17 08:42:25;;;;;;;6.50;3.80;;;25.80;99.90;;;;;;5059058;28;20189;-31
2023/07/17 08:44:53;;;;;;;7.38;4.05;;;25.90;99.90;;;;;;5065806;28;20193;-32
2023/07/17 08:47:20;;;;;;;5.22;3.75;;;26.10;99.90;;;;;;5057603;28;20186;-30
2023/07/17 08:49:48;;;;;;;8.10;4.32;;;26.30;99.90;;;;;;5051430;28;20206;-31
2023/07/17 08:52:15;;;;;;;6.50;4.20;;;26.40;99.90;;;;;;5052016;28;20188;-31
2023/07/17 08:54:41;;;;;;;5.75;4.53;;;26.10;99.90;;;;;;5060046;28;20182;-31
2023/07/17 08:57:08;;;;;;;5.10;3.80;;;26.10;99.90;;;;;;5034938;28;20328;-31
2023/07/17 08:59:34;;;;;;;4.90;3.78;;;26.30;99.90;;;;;;5034896;28;20205;-31
2023/07/17 09:02:03;;;;;;;5.47;3.85;;;26.30;99.90;;;;;;5033330;28;20182;-32
2023/07/17 09:04:31;;;;;;;5.05;4.00;;;26.20;99.90;;;;;;5032534;28;20193;-32
2023/07/17 09:06:57;;;;;;;7.13;4.60;;;26.20;99.90;;;;;;5051331;28;20281;-31
2023/07/17 09:09:23;;;;;;;4.90;3.97;;;26.00;99.90;;;;;;5033911;28;20213;-31
2023/07/17 09:12:05;;;;;;;4.80;3.92;;;26.00;99.90;;;;;;5033090;28;20199;-31
2023/07/17 09:14:31;;;;;;;4.75;3.80;;;26.30;99.90;;;;;;5034378;28;20189;-31
2023/07/17 09:17:03;;;;;;;6.75;4.50;;;26.20;99.90;;;;;;5033887;28;20213;-31
2023/07/17 09:19:31;;;;;;;4.72;4.22;;;26.30;99.90;;;;;;5034908;28;20201;-31
2023/07/17 09:22:05;;;;;;;7.18;4.28;;;26.50;99.90;;;;;;5042348;28;20255;-32
2023/07/17 09:24:36;;;;;;;4.38;3.92;;;26.70;99.90;;;;;;5054042;28;20197;-32
2023/07/17 09:27:07;;;;;;;5.70;4.30;;;26.70;99.90;;;;;;5050385;28;20258;-32
2023/07/17 09:29:33;;;;;;;4.47;3.70;;;26.50;99.90;;;;;;5034354;28;20216;-31
2023/07/17 09:32:25;;;;;;;5.00;3.83;;;26.50;99.90;;;;;;5055065;28;20193;-31
2023/07/17 09:34:55;;;;;;;7.97;3.97;;;26.70;99.90;;;;;;5033442;28;20300;-31
2023/07/17 09:37:20;;;;;;;5.53;3.75;;;26.40;99.90;;;;;;5056848;28;20216;-31
2023/07/17 09:39:51;;;;;;;4.20;3.75;;;26.30;99.90;;;;;;5045596;28;20288;-32
2023/07/17 09:42:24;;;;;;;5.43;3.65;;;26.50;99.90;;;;;;5034236;28;20188;-31
2023/07/17 09:44:53;;;;;;;4.60;3.90;;;26.50;99.90;;;;;;5036480;28;20244;-32
2023/07/17 09:47:20;;;;;;;5.57;3.90;;;26.70;99.90;;;;;;5033711;28;20245;-31
2023/07/17 09:49:48;;;;;;;5.63;3.83;;;27.00;99.90;;;;;;5050269;28;20239;-32
2023/07/17 09:52:15;;;;;;;4.70;4.10;;;27.10;99.90;;;;;;5050057;28;20170;-31
2023/07/17 09:54:43;;;;;;;5.72;3.92;;;27.30;99.90;;;;;;5036161;28;20174;-31
2023/07/17 09:57:14;;;;;;;5.32;3.97;;;27.30;99.90;;;;;;5050061;28;20201;-31
2023/07/17 09:59:47;;;;;;;6.20;4.03;;;27.20;99.90;;;;;;5050406;28;20228;-31
2023/07/17 10:02:20;;;;;;;6.40;3.85;;;27.30;99.90;;;;;;5035376;28;20240;-31
2023/07/17 10:04:51;;;;;;;8.30;4.20;;;27.40;99.90;;;;;;5050265;28;20178;-32
2023/07/17 10:07:19;;;;;;;6.05;4.15;;;27.40;99.90;;;;;;5047846;28;20205;-32
2023/07/17 10:09:48;;;;;;;6.85;3.70;;;27.30;99.90;;;;;;5053439;28;20237;-32
2023/07/17 10:12:18;;;;;;;5.78;4.38;;;27.10;99.90;;;;;;5034062;28;20178;-31
2023/07/17 10:14:45;;;;;;;4.72;4.10;;;27.00;99.90;;;;;;5030826;28;20270;-31
2023/07/17 10:17:34;;;;;;;5.38;4.10;;;26.90;99.90;;;;;;5030717;28;20659;-31
2023/07/17 10:20:06;;;;;;;5.72;4.00;;;27.10;99.90;;;;;;5023654;28;20182;-31
2023/07/17 10:22:40;;;;;;;4.88;3.72;;;27.40;99.90;;;;;;5048915;28;20190;-32
2023/07/17 10:25:25;;;;;;;7.10;4.40;;;27.70;99.90;;;;;;5022417;28;20190;-32
2023/07/17 10:28:01;;;;;;;4.50;3.78;;;27.90;99.90;;;;;;5042305;28;20205;-32
2023/07/17 10:30:33;;;;;;;5.28;4.00;;;27.70;99.90;;;;;;5065682;28;20298;-32
2023/07/17 10:33:16;;;;;;;6.47;4.10;;;27.90;99.90;;;;;;5048736;28;20185;-31
2023/07/17 10:35:57;;;;;;;6.70;4.20;;;28.10;99.90;;;;;;5032846;28;20204;-32
2023/07/17 10:38:28;;;;;;;7.55;4.40;;;28.10;99.90;;;;;;5033412;28;20228;-32
2023/07/17 10:41:11;;;;;;;5.63;4.50;;;27.70;99.90;;;;;;5055646;28;20198;-32
2023/07/17 10:43:49;;;;;;;5.65;4.18;;;27.60;99.90;;;;;;5033001;28;20185;-31
2023/07/17 10:46:15;;;;;;;5.43;3.97;;;27.60;99.90;;;;;;5038445;28;20220;-32
2023/07/17 10:48:40;;;;;;;6.10;4.03;;;27.70;99.90;;;;;;5030322;28;20228;-32
2023/07/17 10:51:07;;;;;;;5.55;4.13;;;27.80;99.90;;;;;;5032241;28;20251;-32
2023/07/17 10:53:32;;;;;;;5.13;4.45;;;27.80;99.90;;;;;;5041487;28;20178;-32
2023/07/17 10:55:59;;;;;;;5.28;4.25;;;27.70;99.90;;;;;;5050455;28;20177;-32
2023/07/17 10:58:26;;;;;;;7.00;4.35;;;27.70;99.90;;;;;;5032875;28;20217;-32
2023/07/17 11:00:55;;;;;;;6.22;4.38;;;27.50;99.90;;;;;;5065928;28;20198;-32
2023/07/17 11:03:26;;;;;;;6.18;4.28;;;27.30;99.90;;;;;;5031922;28;20178;-31
2023/07/17 11:05:56;;;;;;;7.00;4.20;;;27.20;99.90;;;;;;5051165;28;20213;-31
2023/07/17 11:08:26;;;;;;;5.70;4.50;;;27.30;99.90;;;;;;5062843;28;20202;-32
2023/07/17 11:10:53;;;;;;;8.35;4.72;;;27.40;99.90;;;;;;5048608;28;20703;-32
2023/07/17 11:13:19;;;;;;;6.93;4.28;;;27.60;99.90;;;;;;5035392;28;20185;-33
2023/07/17 11:15:46;;;;;;;5.35;4.07;;;28.00;99.90;;;;;;5043142;28;20187;-32
2023/07/17 11:18:13;;;;;;;4.88;4.32;;;28.30;99.90;;;;;;5041392;28;20202;-33
2023/07/17 11:20:41;;;;;;;4.45;3.70;;;28.40;99.90;;;;;;5048992;28;20235;-31
2023/07/17 11:23:11;;;;;;;7.57;4.50;;;28.50;99.90;;;;;;5047753;28;20281;-32
2023/07/17 11:25:42;;;;;;;4.80;3.80;;;28.30;99.90;;;;;;5057831;28;20177;-32
2023/07/17 11:28:08;;;;;;;6.28;4.93;;;28.30;99.90;;;;;;5050396;28;20289;-32
2023/07/17 11:30:34;;;;;;;5.30;4.35;;;28.30;99.90;;;;;;5064340;28;20239;-33
2023/07/17 11:33:05;;;;;;;6.32;4.40;;;28.20;99.90;;;;;;5049019;28;20188;-32
2023/07/17 11:35:38;;;;;;;5.65;4.20;;;28.00;99.90;;;;;;5048564;28;20178;-32
2023/07/17 11:38:10;;;;;;;6.35;4.70;;;27.80;99.90;;;;;;5049226;28;20236;-32
2023/07/17 11:40:59;;;;;;;5.20;4.03;;;27.80;99.90;;;;;;5052055;28;20201;-31
2023/07/17 11:43:33;;;;;;;5.45;4.50;;;27.80;99.90;;;;;;5050080;28;20171;-32
2023/07/17 11:46:11;;;;;;;5.78;4.07;;;28.00;99.90;;;;;;5058274;28;20177;-31
2023/07/17 11:48:41;;;;;;;5.63;4.00;;;28.20;99.90;;;;;;5016054;28;20237;-33
2023/07/17 11:51:07;;;;;;;6.43;3.80;;;28.30;99.90;;;;;;5051887;28;20212;-31
2023/07/17 11:53:34;;;;;;;6.20;4.20;;;28.20;99.90;;;;;;5051839;28;20174;-31
2023/07/17 11:56:01;;;;;;;5.28;4.18;;;28.20;99.90;;;;;;5037926;28;20205;-31
2023/07/17 11:58:30;;;;;;;5.75;4.47;;;28.10;99.90;;;;;;5038822;28;20198;-31
2023/07/17 12:00:57;;;;;;;6.20;4.00;;;27.90;99.90;;;;;;5060624;28;20194;-33
2023/07/17 12:03:23;;;;;;;5.70;4.22;;;27.70;99.90;;;;;;5034893;28;20194;-31
2023/07/17 12:05:50;;;;;;;5.40;4.20;;;27.50;99.90;;;;;;5054684;28;20186;-31
2023/07/17 12:08:16;;;;;;;4.35;3.80;;;27.60;99.90;;;;;;5065127;28;20201;-32
2023/07/17 12:10:42;;;;;;;8.30;4.38;;;27.50;99.90;;;;;;5037003;28;20206;-32
2023/07/17 12:13:08;;;;;;;5.72;4.22;;;27.40;99.90;;;;;;5043399;28;20182;-32
2023/07/17 12:15:35;;;;;;;6.85;4.47;;;27.30;99.90;;;;;;5059251;28;20189;-32
2023/07/17 12:18:03;;;;;;;5.47;4.32;;;27.20;99.90;;;;;;5000225;28;20230;-32
2023/07/17 12:20:32;;;;;;;5.55;4.30;;;27.20;99.90;;;;;;5068637;28;20220;-31
2023/07/17 12:23:02;;;;;;;5.97;4.50;;;27.20;99.90;;;;;;5051282;28;20337;-32
2023/07/17 12:25:30;;;;;;;5.45;4.47;;;27.30;99.90;;;;;;5051901;28;20652;-31
2023/07/17 12:27:59;;;;;;;4.97;4.47;;;27.70;99.90;;;;;;5050866;28;20224;-32
2023/07/17 12:30:25;;;;;;;5.35;4.65;;;28.10;99.90;;;;;;5050725;28;20213;-31
2023/07/17 12:32:51;;;;;;;4.88;4.43;;;28.60;99.90;;;;;;5054639;28;20191;-32
2023/07/17 12:35:17;;;;;;;4.40;4.00;;;28.70;99.90;;;;;;5046977;28;20546;-32
2023/07/17 12:37:43;;;;;;;6.85;4.38;;;28.80;99.90;;;;;;5048344;28;20175;-32
2023/07/17 12:40:09;;;;;;;4.82;4.25;;;29.00;99.90;;;;;;5036086;28;20221;-32
2023/07/17 12:42:38;;;;;;;5.47;4.25;;;29.10;99.90;;;;;;5051893;28;20209;-32
2023/07/17 12:45:05;;;;;;;6.63;4.88;;;29.10;99.90;;;;;;5058906;28;20193;-32
2023/07/17 12:47:31;;;;;;;5.13;4.63;;;29.10;99.90;;;;;;5050555;28;20197;-32
2023/07/17 12:49:57;;;;;;;5.85;4.80;;;29.00;99.60;;;;;;5039898;28;20225;-32